Time;durP1;ratioP1;P1;durP2;ratioP2;P2;SDS_P1;SDS_P2;PMS_P1;PMS_P2;Temp;Humidity;BMP_temperature;BMP_pressure;BME280_temperature;BME280_humidity;BME280_pressure;Samples;Min_cycle;Max_cycle;Signal;HPM_P1;HPM_P2
2022/08/12 00:42:55;;;;;;;5.40;3.90;;;;;;;18.53;63.69;101657.38;174818;28;1037;-72
2022/08/12 00:43:02;;;;;;;4.87;3.73;;;;;;;18.53;63.68;101658.22;174788;28;962;-72
2022/08/12 00:43:16;;;;;;;3.93;3.53;;;;;;;18.53;63.77;101658.22;174750;28;1043;-72
2022/08/12 00:43:24;;;;;;;3.94;3.42;;;;;;;18.51;63.69;101652.16;174831;28;1222;-72
2022/08/12 00:43:33;;;;;;;3.88;3.35;;;;;;;18.51;63.64;101657.47;173947;28;1546;-72
2022/08/12 00:43:43;;;;;;;4.30;3.47;;;;;;;18.50;63.66;101655.78;174025;28;1140;-72
2022/08/12 00:43:49;;;;;;;4.91;3.57;;;;;;;18.51;63.93;101654.81;174078;28;1069;-72
2022/08/12 00:43:57;;;;;;;5.45;3.70;;;;;;;18.52;64.06;101653.84;174058;28;918;-72
2022/08/12 00:44:08;;;;;;;5.62;3.68;;;;;;;18.53;64.17;101652.94;174059;28;1101;-72
2022/08/12 00:44:15;;;;;;;6.16;3.74;;;;;;;18.54;64.26;101659.06;173276;28;1495;-72
2022/08/12 00:44:22;;;;;;;5.34;3.76;;;;;;;18.54;64.12;101653.78;173429;28;903;-72
2022/08/12 00:44:27;;;;;;;5.04;3.70;;;;;;;18.53;64.12;101658.22;173405;28;2147;-73
2022/08/12 00:44:33;;;;;;;5.70;3.70;;;;;;;18.52;64.37;101656.50;173402;28;1049;-72
2022/08/12 00:44:40;;;;;;;5.70;3.53;;;;;;;18.52;64.02;101656.50;174057;28;831;-72
2022/08/12 00:44:46;;;;;;;5.58;3.57;;;;;;;18.52;64.16;101656.50;174075;28;1152;-72
2022/08/12 00:44:53;;;;;;;6.17;3.50;;;;;;;18.51;64.51;101653.97;174154;28;867;-72
2022/08/12 00:44:58;;;;;;;6.22;3.50;;;;;;;18.51;64.80;101659.28;174074;28;909;-72
2022/08/12 00:45:04;;;;;;;5.57;3.60;;;;;;;18.51;64.61;101657.47;173976;28;899;-72
2022/08/12 00:45:10;;;;;;;5.05;3.60;;;;;;;18.52;64.61;101658.31;174080;28;903;-72
2022/08/12 00:45:17;;;;;;;4.40;3.50;;;;;;;18.52;64.85;101655.69;174097;28;907;-72
2022/08/12 00:45:24;;;;;;;4.00;3.60;;;;;;;18.52;64.78;101659.16;174074;28;1914;-72
2022/08/12 00:46:29;;;;;;;4.03;3.60;;;;;;;18.52;64.58;101656.50;174631;28;1046;-72
2022/08/12 00:46:31;;;;;;;5.10;3.51;;;;;;;18.47;64.05;101648.03;174780;28;1164;-73
2022/08/12 00:47:00;;;;;;;5.09;3.50;;;;;;;18.49;63.86;101647.94;174433;28;1216;-72
2022/08/12 00:47:06;;;;;;;5.78;3.49;;;;;;;18.49;63.89;101648.78;174768;28;1209;-72
2022/08/12 00:47:13;;;;;;;7.05;3.50;;;;;;;18.48;63.65;101652.34;175339;28;1069;-72
2022/08/12 00:47:20;;;;;;;6.77;3.43;;;;;;;18.48;63.64;101649.72;175525;28;957;-72
2022/08/12 00:47:25;;;;;;;5.26;3.50;;;;;;;18.47;63.53;101653.31;175451;28;1000;-72
2022/08/12 00:47:34;;;;;;;5.03;3.60;;;;;;;18.49;63.63;101656.72;175435;28;859;-72
2022/08/12 00:47:39;;;;;;;5.10;3.60;;;;;;;18.48;63.79;101655.00;175449;28;994;-72
2022/08/12 00:47:47;;;;;;;4.93;3.53;;;;;;;18.49;63.78;101650.56;175456;28;1021;-72
2022/08/12 00:47:53;;;;;;;5.30;3.52;;;;;;;18.50;63.41;101653.13;175432;28;966;-72
2022/08/12 00:47:58;;;;;;;5.83;3.30;;;;;;;18.49;63.87;101651.44;175478;28;851;-72
2022/08/12 00:48:04;;;;;;;6.10;3.30;;;;;;;18.49;63.83;101656.72;175448;28;1084;-73
2022/08/12 00:48:09;;;;;;;6.20;3.30;;;;;;;18.50;63.75;101653.13;175439;28;1013;-73
2022/08/12 00:48:16;;;;;;;6.38;3.30;;;;;;;18.50;63.95;101646.97;175474;28;941;-72
2022/08/12 00:48:21;;;;;;;6.38;3.33;;;;;;;18.50;63.73;101653.13;175511;28;1062;-72
2022/08/12 00:48:27;;;;;;;6.18;3.40;;;;;;;18.50;63.79;101657.56;175482;28;863;-73
2022/08/12 00:48:34;;;;;;;5.97;3.40;;;;;;;18.50;63.71;101655.78;175460;28;1155;-73
2022/08/12 00:48:41;;;;;;;5.40;3.33;;;;;;;18.50;63.82;101653.13;175385;28;1170;-72
2022/08/12 00:48:48;;;;;;;5.22;3.30;;;;;;;18.50;63.80;101653.13;175469;28;960;-72
2022/08/12 00:48:56;;;;;;;4.47;3.30;;;;;;;18.49;63.65;101651.44;175449;28;997;-72
2022/08/12 00:49:04;;;;;;;3.67;3.30;;;;;;;18.50;64.02;101653.13;175466;28;1025;-72
2022/08/12 00:49:10;;;;;;;4.67;3.44;;;;;;;18.50;63.92;101649.63;175249;28;1043;-72
2022/08/12 00:49:17;;;;;;;4.82;3.50;;;;;;;18.50;64.07;101653.13;174826;28;1097;-72
2022/08/12 00:49:25;;;;;;;5.06;3.60;;;;;;;18.51;63.89;101649.53;174799;28;974;-72
2022/08/12 00:49:31;;;;;;;5.67;3.57;;;;;;;18.51;63.99;101652.16;174771;28;963;-72
2022/08/12 00:49:38;;;;;;;4.90;3.42;;;;;;;18.50;63.78;101653.13;174007;28;856;-71
2022/08/12 00:49:48;;;;;;;6.52;3.40;;;;;;;18.51;63.74;101651.34;174054;28;1006;-72
2022/08/12 00:49:54;;;;;;;6.63;3.30;;;;;;;18.50;63.91;101653.13;174025;28;973;-72
2022/08/12 00:50:00;;;;;;;6.80;3.23;;;;;;;18.51;64.22;101651.34;174035;28;1156;-72
2022/08/12 00:50:16;;;;;;;7.43;3.35;;;;;;;18.51;64.52;101649.53;174080;28;990;-74
2022/08/12 00:50:26;;;;;;;6.50;3.35;;;;;;;18.51;64.24;101653.97;173279;28;1218;-74
2022/08/12 00:50:34;;;;;;;5.96;3.33;;;;;;;18.50;64.33;101658.41;173509;28;1127;-73
2022/08/12 00:50:41;;;;;;;4.75;3.20;;;;;;;18.50;64.48;101652.28;174066;28;1077;-73
2022/08/12 00:50:53;;;;;;;5.03;3.20;;;;;;;18.49;64.61;101654.09;174085;28;1278;-72
2022/08/12 00:51:01;;;;;;;5.75;3.20;;;;;;;18.49;64.59;101656.72;174097;28;1065;-72
2022/08/12 00:51:08;;;;;;;5.48;3.25;;;;;;;18.48;64.87;101655.00;174045;28;964;-72
2022/08/12 00:51:15;;;;;;;6.50;3.28;;;;;;;18.48;64.51;101654.19;174068;28;942;-72
2022/08/12 00:52:04;;;;;;;5.60;3.16;;;;;;;18.47;64.89;101653.31;174106;28;962;-72
2022/08/12 00:52:06;;;;;;;5.93;3.33;;;;;;;18.45;65.02;101655.22;174686;28;1199;-73
2022/08/12 00:52:12;;;;;;;5.95;3.44;;;;;;;18.45;64.80;101649.94;174734;28;1206;-72
2022/08/12 00:52:19;;;;;;;4.63;3.10;;;;;;;18.44;64.91;101648.22;174806;28;934;-72
2022/08/12 00:52:25;;;;;;;4.70;3.12;;;;;;;18.44;64.69;101650.03;174787;28;1041;-73
2022/08/12 00:52:34;;;;;;;4.78;3.13;;;;;;;18.44;64.95;101650.03;174787;28;1104;-73
2022/08/12 00:52:41;;;;;;;5.35;3.37;;;;;;;18.44;64.80;101653.50;174786;28;1140;-73
2022/08/12 00:52:50;;;;;;;5.67;3.57;;;;;;;18.43;64.83;101657.09;174786;28;863;-72
2022/08/12 00:52:57;;;;;;;5.01;3.60;;;;;;;18.43;64.70;101651.81;174756;28;1156;-73
2022/08/12 00:53:07;;;;;;;4.67;3.70;;;;;;;18.43;64.76;101651.81;174795;28;1050;-72
2022/08/12 00:53:14;;;;;;;4.22;3.55;;;;;;;18.43;64.43;101649.16;175313;28;1404;-72
2022/08/12 00:53:20;;;;;;;4.27;3.50;;;;;;;18.43;64.54;101645.66;175525;28;886;-72
2022/08/12 00:53:28;;;;;;;4.53;3.55;;;;;;;18.41;64.69;101648.44;175302;28;1262;-72
2022/08/12 00:53:35;;;;;;;5.20;3.40;;;;;;;18.41;64.63;101656.38;175443;28;950;-72
2022/08/12 00:53:41;;;;;;;5.58;3.46;;;;;;;18.42;64.47;101650.13;175450;28;915;-72
2022/08/12 00:53:46;;;;;;;5.28;3.50;;;;;;;18.42;64.31;101650.13;175441;28;1025;-72
2022/08/12 00:53:52;;;;;;;4.93;3.43;;;;;;;18.42;64.44;101646.63;175441;28;898;-72
2022/08/12 00:53:57;;;;;;;5.87;3.40;;;;;;;18.43;64.71;101648.31;175452;28;977;-72
2022/08/12 00:54:03;;;;;;;5.85;3.50;;;;;;;18.41;64.59;101648.44;175413;28;932;-72
2022/08/12 00:54:08;;;;;;;5.88;3.50;;;;;;;18.41;64.71;101651.06;175428;28;847;-72
2022/08/12 00:54:16;;;;;;;5.53;3.40;;;;;;;18.41;64.49;101659.00;175372;28;1973;-73
2022/08/12 00:54:21;;;;;;;5.60;3.30;;;;;;;18.40;64.65;101649.34;175510;28;929;-73
2022/08/12 00:54:26;;;;;;;5.20;3.28;;;;;;;18.40;64.35;101655.50;175466;28;919;-73
2022/08/12 00:54:47;;;;;;;4.27;3.30;;;;;;;18.39;64.68;101645.03;174674;28;990;-73
2022/08/12 00:54:56;;;;;;;5.60;3.41;;;;;;;18.37;64.37;101649.56;174757;28;1213;-72
2022/08/12 00:55:04;;;;;;;6.67;3.60;;;;;;;18.38;64.50;101645.97;174742;28;1038;-72
2022/08/12 00:55:09;;;;;;;6.45;3.50;;;;;;;18.38;64.66;101653.91;174691;28;987;-72
2022/08/12 00:55:17;;;;;;;6.53;3.47;;;;;;;18.38;64.32;101651.25;174078;28;1073;-72
2022/08/12 00:55:23;;;;;;;7.33;3.40;;;;;;;18.37;64.29;101652.22;174110;28;867;-72
2022/08/12 00:55:28;;;;;;;7.03;3.42;;;;;;;18.36;64.43;101650.50;174053;28;1017;-72
2022/08/12 00:55:38;;;;;;;6.53;3.30;;;;;;;18.36;64.21;101643.44;174063;28;976;-72
2022/08/12 00:55:45;;;;;;;6.49;3.44;;;;;;;18.36;64.35;101650.50;174032;28;1140;-72
2022/08/12 00:55:55;;;;;;;6.28;3.50;;;;;;;18.36;64.27;101650.50;174117;28;1173;-72
2022/08/12 00:56:05;;;;;;;6.80;3.54;;;;;;;18.35;64.27;101654.09;174048;28;1164;-74
2022/08/12 00:56:11;;;;;;;6.99;3.46;;;;;;;18.34;64.38;101655.03;173840;28;1562;-74
2022/08/12 00:56:22;;;;;;;6.05;3.35;;;;;;;18.34;64.42;101647.13;174053;28;899;-73
2022/08/12 00:56:30;;;;;;;5.66;3.39;;;;;;;18.33;64.50;101645.41;174062;28;1325;-73
2022/08/12 00:56:38;;;;;;;4.27;3.20;;;;;;;18.33;64.72;101642.75;174786;28;1124;-73
2022/08/12 00:56:47;;;;;;;4.53;3.27;;;;;;;18.33;64.38;101646.25;174807;28;883;-73
2022/08/12 00:57:01;;;;;;;4.87;3.30;;;;;;;18.34;64.55;101641.84;174640;28;2187;-73
2022/08/12 00:57:20;;;;;;;5.38;3.39;;;;;;;18.33;64.57;101645.41;174762;28;1220;-73
2022/08/12 00:57:34;;;;;;;6.31;3.47;;;;;;;18.31;64.74;101652.59;174791;28;1224;-71
2022/08/12 00:57:47;;;;;;;5.63;3.51;;;;;;;18.32;64.61;101643.72;174795;28;1226;-72
2022/08/12 00:57:53;;;;;;;5.43;3.46;;;;;;;18.32;64.76;101651.63;174778;28;1358;-72
2022/08/12 00:58:04;;;;;;;5.85;3.33;;;;;;;18.32;64.83;101652.50;174742;28;1073;-76
2022/08/12 00:58:15;;;;;;;6.66;3.40;;;;;;;18.31;64.45;101647.31;174708;28;1498;-73
2022/08/12 00:58:27;;;;;;;6.50;3.42;;;;;;;18.30;64.69;101646.44;174814;28;1209;-74
2022/08/12 00:58:33;;;;;;;5.88;3.43;;;;;;;18.31;64.72;101647.31;174747;28;1238;-73
2022/08/12 00:58:49;;;;;;;5.55;3.50;;;;;;;18.31;64.72;101653.44;174807;28;1222;-73
2022/08/12 00:58:55;;;;;;;5.20;3.50;;;;;;;18.32;64.56;101654.28;174753;28;1213;-74
2022/08/12 00:59:03;;;;;;;5.07;3.47;;;;;;;18.32;64.85;101652.50;174839;28;855;-73
2022/08/12 00:59:10;;;;;;;4.72;3.32;;;;;;;18.32;65.02;101652.50;174829;28;995;-73
2022/08/12 00:59:16;;;;;;;5.18;3.46;;;;;;;18.33;64.90;101658.59;174776;28;981;-73
2022/08/12 00:59:22;;;;;;;5.80;3.47;;;;;;;18.32;65.03;101649.00;174878;28;910;-72
2022/08/12 00:59:27;;;;;;;6.88;3.42;;;;;;;18.30;65.11;101645.63;174796;28;961;-73
2022/08/12 00:59:34;;;;;;;6.97;3.50;;;;;;;18.30;65.21;101650.91;174760;28;1081;-74
2022/08/12 00:59:55;;;;;;;6.68;3.52;;;;;;;18.29;64.86;101647.41;174786;28;1073;-74
2022/08/12 01:00:21;;;;;;;5.80;3.44;;;;;;;18.29;65.41;101650.03;174736;28;1230;-72
2022/08/12 01:00:27;;;;;;;5.79;3.44;;;;;;;18.30;65.24;101650.91;174721;28;1225;-71
2022/08/12 01:00:34;;;;;;;6.10;3.40;;;;;;;18.30;65.21;101648.25;174807;28;965;-72
2022/08/12 01:00:41;;;;;;;6.20;3.50;;;;;;;18.31;65.39;101652.59;174771;28;969;-71
2022/08/12 01:00:48;;;;;;;6.60;3.48;;;;;;;18.30;65.37;101657.00;175369;28;1132;-71
2022/08/12 01:01:01;;;;;;;6.38;3.48;;;;;;;18.30;65.42;101650.91;175491;28;1054;-71
2022/08/12 01:01:07;;;;;;;5.93;3.54;;;;;;;18.30;65.27;101653.53;175423;28;1215;-72
2022/08/12 01:01:15;;;;;;;5.87;3.50;;;;;;;18.30;65.44;101656.19;175454;28;958;-71
2022/08/12 01:01:21;;;;;;;5.57;3.50;;;;;;;18.31;65.32;101657.88;174695;28;1260;-73
2022/08/12 01:01:29;;;;;;;5.93;3.42;;;;;;;18.30;65.40;101650.91;174763;28;993;-72
2022/08/12 01:01:35;;;;;;;4.92;3.33;;;;;;;18.30;65.42;101650.91;174738;28;967;-72
2022/08/12 01:01:46;;;;;;;5.47;3.28;;;;;;;18.30;65.54;101654.38;174767;28;867;-72
2022/08/12 01:01:55;;;;;;;6.37;3.42;;;;;;;18.30;65.27;101650.91;174770;28;1221;-72
2022/08/12 01:02:05;;;;;;;6.27;3.57;;;;;;;18.30;65.27;101656.19;174700;28;1139;-71
2022/08/12 01:02:28;;;;;;;5.13;3.44;;;;;;;18.29;65.59;101652.69;174741;28;1138;-72
2022/08/12 01:02:44;;;;;;;4.80;3.30;;;;;;;18.27;65.74;101650.13;174736;28;1216;-72
2022/08/12 01:02:57;;;;;;;4.97;3.29;;;;;;;18.28;65.96;101654.47;174063;28;1217;-71
2022/08/12 01:03:09;;;;;;;4.15;3.21;;;;;;;18.26;66.09;101653.72;174052;28;1209;-71
2022/08/12 01:03:19;;;;;;;5.20;3.40;;;;;;;18.24;66.33;101650.31;174028;28;1214;-71
2022/08/12 01:11:27;;;;;;;6.36;3.53;;;;;;;18.23;66.29;101646.00;174819;28;1135;-71
2022/08/12 01:11:33;;;;;;;6.68;3.69;;;;;;;18.18;66.60;101645.44;174845;28;1170;-73
2022/08/12 01:11:39;;;;;;;4.75;3.58;;;;;;;18.20;66.85;101650.63;174749;28;1210;-72
2022/08/12 01:11:45;;;;;;;5.43;3.43;;;;;;;18.18;67.07;101650.72;174736;28;1085;-72
2022/08/12 01:11:53;;;;;;;5.10;3.30;;;;;;;18.19;67.07;101643.63;174801;28;1053;-72
2022/08/12 01:12:00;;;;;;;5.83;3.37;;;;;;;18.19;66.83;101651.56;174837;28;969;-73
2022/08/12 01:12:09;;;;;;;5.90;3.30;;;;;;;18.19;67.02;101652.41;174785;28;938;-72
2022/08/12 01:12:16;;;;;;;5.59;3.40;;;;;;;18.17;66.98;101651.66;174786;28;1187;-72
2022/08/12 01:12:23;;;;;;;5.34;3.40;;;;;;;18.18;66.83;101657.78;174870;28;929;-73
2022/08/12 01:12:28;;;;;;;4.63;3.40;;;;;;;18.18;67.32;101656.00;174783;28;982;-72
2022/08/12 01:12:40;;;;;;;6.53;3.60;;;;;;;18.17;66.84;101646.38;174761;28;1220;-72
2022/08/12 01:12:48;;;;;;;5.91;3.58;;;;;;;18.17;66.92;101651.66;174696;28;1222;-72
2022/08/12 01:12:54;;;;;;;5.78;3.73;;;;;;;18.17;67.02;101649.03;174724;28;1101;-73
2022/08/12 01:13:01;;;;;;;6.10;3.88;;;;;;;18.17;66.53;101651.66;174763;28;962;-73
2022/08/12 01:13:08;;;;;;;4.58;3.70;;;;;;;18.19;66.65;101654.19;174685;28;1153;-72
2022/08/12 01:13:16;;;;;;;4.54;3.70;;;;;;;18.18;66.49;101650.72;174754;28;1144;-72
2022/08/12 01:13:23;;;;;;;4.51;3.69;;;;;;;18.17;66.55;101646.38;173945;28;1326;-72
2022/08/12 01:13:32;;;;;;;4.82;3.60;;;;;;;18.19;66.50;101654.19;174086;28;848;-72
2022/08/12 01:13:46;;;;;;;5.07;3.60;;;;;;;18.19;66.36;101657.69;174053;28;1053;-72
2022/08/12 01:13:52;;;;;;;5.39;3.53;;;;;;;18.18;66.46;101650.72;174088;28;1210;-72
2022/08/12 01:14:01;;;;;;;5.13;3.50;;;;;;;18.18;66.54;101650.72;174054;28;1069;-72
2022/08/12 01:14:06;;;;;;;4.85;3.45;;;;;;;18.17;66.28;101649.03;174026;28;1055;-72
2022/08/12 01:14:12;;;;;;;4.78;3.58;;;;;;;18.16;66.46;101649.94;173955;28;1922;-72
2022/08/12 01:14:22;;;;;;;5.00;3.60;;;;;;;18.16;66.52;101649.94;173255;28;1043;-71
2022/08/12 01:14:28;;;;;;;5.66;3.67;;;;;;;18.16;66.25;101649.13;173353;28;1212;-73
2022/08/12 01:14:35;;;;;;;5.63;3.77;;;;;;;18.17;65.92;101650.81;173362;28;1077;-73
2022/08/12 01:14:42;;;;;;;6.05;3.80;;;;;;;18.17;66.33;101650.81;173360;28;1136;-72
2022/08/12 01:14:49;;;;;;;6.16;3.80;;;;;;;18.17;65.98;101654.31;173366;28;915;-72
2022/08/12 01:14:56;;;;;;;5.17;3.70;;;;;;;18.16;66.03;101649.94;173378;28;1057;-71
2022/08/12 01:15:03;;;;;;;5.30;3.70;;;;;;;18.16;66.36;101649.13;173353;28;959;-71
2022/08/12 01:15:12;;;;;;;4.70;3.60;;;;;;;18.15;66.17;101648.25;173375;28;958;-73
2022/08/12 01:15:19;;;;;;;3.99;3.44;;;;;;;18.12;66.04;101644.03;173349;28;1153;-72
2022/08/12 01:15:27;;;;;;;4.78;3.42;;;;;;;18.12;66.37;101644.03;173304;28;1153;-71
2022/08/12 01:15:33;;;;;;;5.76;3.42;;;;;;;18.12;66.31;101640.53;173380;28;911;-72
2022/08/12 01:15:38;;;;;;;6.43;3.50;;;;;;;18.13;66.25;101658.06;173383;28;1078;-71
2022/08/12 01:15:48;;;;;;;7.90;3.70;;;;;;;18.13;66.09;101650.13;173360;28;915;-72
2022/08/12 01:15:58;;;;;;;7.97;3.64;;;;;;;18.12;66.35;101649.31;173437;28;1166;-71
2022/08/12 01:16:06;;;;;;;7.21;3.71;;;;;;;18.13;66.48;101648.34;173359;28;1145;-72
2022/08/12 01:16:21;;;;;;;6.13;3.63;;;;;;;18.15;66.23;101650.91;173397;28;899;-72
2022/08/12 01:16:27;;;;;;;5.94;3.53;;;;;;;18.13;65.88;101650.13;174054;28;1238;-71
2022/08/12 01:16:34;;;;;;;5.12;3.36;;;;;;;18.14;66.04;101646.56;174074;28;1000;-73
2022/08/12 01:16:40;;;;;;;4.36;3.44;;;;;;;18.11;66.14;101647.63;174063;28;1013;-72
2022/08/12 01:16:47;;;;;;;4.65;3.65;;;;;;;18.11;66.29;101646.75;174065;28;923;-73
2022/08/12 01:16:54;;;;;;;4.80;3.70;;;;;;;18.11;66.14;101649.41;174136;28;792;-73
2022/08/12 01:17:00;;;;;;;4.80;3.83;;;;;;;18.10;66.49;101647.72;174046;28;1062;-72
2022/08/12 01:17:06;;;;;;;5.43;3.93;;;;;;;18.10;66.18;101645.06;173999;28;934;-73
2022/08/12 01:17:12;;;;;;;5.66;3.88;;;;;;;18.11;66.14;101652.03;174049;28;875;-73
2022/08/12 01:17:20;;;;;;;5.90;3.70;;;;;;;18.11;66.25;101647.63;174061;28;867;-73
2022/08/12 01:17:26;;;;;;;6.13;3.80;;;;;;;18.13;65.94;101644.84;174831;28;1152;-72
2022/08/12 01:17:32;;;;;;;6.23;3.70;;;;;;;18.12;65.92;101646.66;174801;28;878;-71
2022/08/12 01:17:44;;;;;;;5.60;3.57;;;;;;;18.13;65.87;101647.50;174785;28;911;-72
2022/08/12 01:17:50;;;;;;;5.60;3.63;;;;;;;18.13;66.11;101645.72;174753;28;1217;-71
2022/08/12 01:17:56;;;;;;;5.40;3.70;;;;;;;18.14;66.00;101644.75;174811;28;906;-71
2022/08/12 01:18:04;;;;;;;5.05;3.70;;;;;;;18.14;65.72;101649.22;174720;28;991;-71
2022/08/12 01:18:12;;;;;;;5.05;3.70;;;;;;;18.13;65.87;101647.50;174770;28;922;-71
2022/08/12 01:18:28;;;;;;;5.17;3.73;;;;;;;18.05;66.10;101644.44;174852;28;891;-71
2022/08/12 01:18:39;;;;;;;5.56;3.70;;;;;;;18.05;66.16;101644.44;174737;28;1218;-71
2022/08/12 01:18:44;;;;;;;6.38;3.63;;;;;;;18.06;66.10;101647.00;174702;28;1151;-72
2022/08/12 01:18:54;;;;;;;7.00;3.70;;;;;;;18.08;65.95;101647.78;174757;28;1034;-72
2022/08/12 01:19:02;;;;;;;6.43;3.67;;;;;;;18.08;65.97;101638.97;174596;28;1616;-71
2022/08/12 01:19:10;;;;;;;6.44;3.70;;;;;;;18.09;65.75;101648.63;174729;28;969;-71
2022/08/12 01:19:20;;;;;;;6.08;3.65;;;;;;;18.10;65.72;101655.63;174742;28;956;-71
2022/08/12 01:19:25;;;;;;;5.35;3.58;;;;;;;18.11;65.96;101657.31;174764;28;1127;-72
2022/08/12 01:19:31;;;;;;;5.10;3.60;;;;;;;18.10;65.64;101648.53;174797;28;1029;-72
2022/08/12 01:19:37;;;;;;;4.55;3.58;;;;;;;18.11;65.95;101646.75;174792;28;1076;-72
2022/08/12 01:19:43;;;;;;;4.60;3.63;;;;;;;18.10;65.88;101651.19;174776;28;902;-71
2022/08/12 01:19:54;;;;;;;4.68;3.70;;;;;;;18.10;65.77;101650.34;174761;28;1065;-72
2022/08/12 01:20:05;;;;;;;4.93;3.64;;;;;;;18.09;65.69;101651.28;174750;28;1226;-71
2022/08/12 01:20:37;;;;;;;4.87;3.63;;;;;;;18.10;65.88;101650.34;174771;28;1221;-72
2022/08/12 01:20:52;;;;;;;4.13;3.55;;;;;;;18.11;65.64;101649.41;174730;28;1226;-72
2022/08/12 01:21:48;;;;;;;4.28;3.66;;;;;;;18.08;65.43;101642.50;174766;28;1213;-72
2022/08/12 01:22:21;;;;;;;7.46;3.83;;;;;;;18.11;65.30;101652.91;172652;28;1214;-72
2022/08/12 01:22:54;;;;;;;9.74;3.83;;;;;;;18.10;65.09;101650.34;172676;28;1242;-72
2022/08/12 01:23:30;;;;;;;7.14;3.71;;;;;;;18.09;65.07;101644.22;174763;28;1212;-72
2022/08/12 01:23:45;;;;;;;7.31;3.66;;;;;;;18.07;65.13;101645.22;174734;28;1186;-72
2022/08/12 01:24:30;;;;;;;10.66;3.71;;;;;;;18.06;65.23;101649.63;174756;28;1205;-71
2022/08/12 01:24:52;;;;;;;8.77;3.81;;;;;;;18.10;64.86;101647.72;174682;28;1231;-71
2022/08/12 01:25:05;;;;;;;5.79;3.83;;;;;;;18.10;64.89;101650.34;173847;28;1529;-71
2022/08/12 01:25:28;;;;;;;5.25;3.69;;;;;;;18.08;64.75;101646.91;174004;28;1209;-71
2022/08/12 01:25:39;;;;;;;5.80;3.64;;;;;;;18.10;64.60;101655.63;173955;28;1727;-71
2022/08/12 01:25:49;;;;;;;6.33;3.62;;;;;;;18.10;64.54;101650.34;174041;28;1210;-71
2022/08/12 01:25:58;;;;;;;6.63;3.61;;;;;;;18.06;64.91;101654.91;174067;28;1047;-70
2022/08/12 01:26:06;;;;;;;6.16;3.64;;;;;;;18.07;64.69;101645.22;173995;28;1135;-71
2022/08/12 01:26:22;;;;;;;6.33;3.70;;;;;;;18.08;64.63;101646.91;174023;28;1132;-72
2022/08/12 01:26:31;;;;;;;5.79;3.70;;;;;;;18.09;64.66;101649.50;173975;28;1531;-71
2022/08/12 01:26:39;;;;;;;6.51;3.69;;;;;;;18.09;64.83;101654.78;173893;28;1200;-71
2022/08/12 01:26:46;;;;;;;6.08;3.53;;;;;;;18.08;64.66;101644.25;174023;28;968;-72
2022/08/12 01:26:55;;;;;;;7.38;3.40;;;;;;;18.10;64.58;101650.34;174043;28;875;-71
2022/08/12 01:27:06;;;;;;;7.80;3.40;;;;;;;18.10;64.46;101655.63;174076;28;961;-71
2022/08/12 01:27:14;;;;;;;6.38;3.50;;;;;;;18.11;64.61;101644.13;173975;28;1230;-71
2022/08/12 01:27:22;;;;;;;4.58;3.60;;;;;;;18.10;64.49;101645.91;174033;28;1073;-72
2022/08/12 01:27:32;;;;;;;4.17;3.73;;;;;;;18.11;64.52;101652.91;174064;28;957;-71
2022/08/12 01:27:39;;;;;;;4.20;3.75;;;;;;;18.11;64.44;101649.41;174033;28;1124;-71
2022/08/12 01:27:49;;;;;;;5.27;3.80;;;;;;;18.10;64.47;101645.06;174075;28;884;-70
2022/08/12 01:27:59;;;;;;;5.91;3.65;;;;;;;18.10;64.44;101651.19;174045;28;1128;-71
2022/08/12 01:28:13;;;;;;;6.83;3.70;;;;;;;18.10;64.73;101651.19;174072;28;907;-71
2022/08/12 01:28:22;;;;;;;7.01;3.69;;;;;;;18.11;64.73;101652.03;173976;28;1215;-71
2022/08/12 01:28:32;;;;;;;6.53;3.90;;;;;;;18.11;64.63;101654.69;174701;28;1136;-70
2022/08/12 01:28:42;;;;;;;6.40;3.81;;;;;;;18.05;65.44;101647.09;174722;28;1120;-70
2022/08/12 01:28:53;;;;;;;7.57;3.86;;;;;;;17.95;66.07;101647.66;174746;28;1148;-70
2022/08/12 01:28:59;;;;;;;7.10;3.69;;;;;;;17.95;65.36;101647.66;174788;28;1222;-70
2022/08/12 01:29:09;;;;;;;6.40;3.77;;;;;;;17.98;65.43;101649.25;174790;28;942;-70
2022/08/12 01:29:25;;;;;;;4.55;3.64;;;;;;;18.00;65.01;101650.88;174754;28;1154;-71
2022/08/12 01:29:33;;;;;;;4.66;3.58;;;;;;;18.02;65.47;101648.13;174717;28;1201;-70
2022/08/12 01:29:44;;;;;;;5.17;3.52;;;;;;;18.05;64.98;101652.38;174690;28;989;-70
2022/08/12 01:29:54;;;;;;;5.76;3.76;;;;;;;18.04;64.70;101650.69;174705;28;1444;-70
2022/08/12 01:30:06;;;;;;;6.83;4.00;;;;;;;18.04;65.14;101650.69;174791;28;990;-70
2022/08/12 01:30:13;;;;;;;7.22;3.97;;;;;;;18.05;65.03;101647.09;174765;28;1217;-71
2022/08/12 01:30:20;;;;;;;6.82;3.94;;;;;;;18.05;65.20;101647.09;174757;28;1036;-71
2022/08/12 01:30:32;;;;;;;6.63;3.80;;;;;;;18.05;65.32;101647.94;174775;28;926;-71
2022/08/12 01:30:42;;;;;;;5.61;3.71;;;;;;;18.05;65.02;101647.09;174714;28;1218;-71
2022/08/12 01:30:49;;;;;;;4.57;3.59;;;;;;;18.05;65.30;101647.94;173937;28;1448;-71
2022/08/12 01:30:59;;;;;;;3.98;3.58;;;;;;;18.04;65.18;101648.91;174041;28;965;-71
2022/08/12 01:31:05;;;;;;;4.33;3.50;;;;;;;18.03;65.09;101649.81;174019;28;1218;-71
2022/08/12 01:31:13;;;;;;;6.00;3.55;;;;;;;18.05;65.45;101649.72;174076;28;954;-71
2022/08/12 01:31:20;;;;;;;6.47;3.80;;;;;;;18.05;65.59;101647.09;174066;28;1057;-71
2022/08/12 01:31:28;;;;;;;7.37;3.80;;;;;;;18.07;65.61;101653.16;174046;28;1061;-71
2022/08/12 01:31:37;;;;;;;7.44;3.80;;;;;;;18.08;65.71;101652.19;174054;28;979;-71
2022/08/12 01:31:48;;;;;;;6.15;3.70;;;;;;;18.09;65.27;101653.91;173954;28;1136;-70
2022/08/12 01:31:59;;;;;;;5.96;3.59;;;;;;;18.10;65.33;101655.63;174028;28;1214;-70
2022/08/12 01:32:11;;;;;;;5.82;3.66;;;;;;;18.09;65.09;101660.06;174032;28;1144;-71
2022/08/12 01:32:22;;;;;;;5.47;3.69;;;;;;;18.09;65.12;101648.63;173340;28;1474;-70
2022/08/12 01:32:36;;;;;;;5.68;3.71;;;;;;;18.09;65.26;101651.28;173346;28;1235;-71
2022/08/12 01:32:47;;;;;;;5.35;3.63;;;;;;;18.09;64.89;101653.91;173363;28;1198;-71
2022/08/12 01:32:58;;;;;;;7.04;3.69;;;;;;;18.07;65.28;101650.50;174014;28;2148;-70
2022/08/12 01:33:06;;;;;;;8.27;3.68;;;;;;;18.06;65.35;101651.44;174009;28;1211;-70
2022/08/12 01:33:17;;;;;;;7.88;3.58;;;;;;;18.06;65.06;101649.63;174018;28;990;-70
2022/08/12 01:33:28;;;;;;;6.08;3.48;;;;;;;18.06;65.57;101649.63;173943;28;1194;-72
2022/08/12 01:34:05;;;;;;;4.70;3.50;;;;;;;18.05;65.00;101655.00;173971;28;966;-74
2022/08/12 01:34:14;;;;;;;5.31;3.64;;;;;;;18.06;65.12;101654.91;174007;28;1210;-75
2022/08/12 01:34:29;;;;;;;6.16;3.64;;;;;;;18.06;64.99;101654.91;174800;28;1065;-74
2022/08/12 01:34:38;;;;;;;6.04;3.70;;;;;;;18.07;64.66;101656.59;174760;28;1684;-73
2022/08/12 01:35:10;;;;;;;6.00;3.68;;;;;;;18.06;64.75;101654.91;174759;28;956;-71
2022/08/12 01:35:16;;;;;;;5.71;3.63;;;;;;;18.05;64.65;101658.50;174621;28;1316;-71
2022/08/12 01:35:23;;;;;;;6.47;3.50;;;;;;;18.05;64.59;101649.72;174740;28;962;-71
2022/08/12 01:35:33;;;;;;;5.67;3.40;;;;;;;18.04;64.87;101650.69;174766;28;958;-72
2022/08/12 01:35:47;;;;;;;6.83;3.40;;;;;;;18.02;65.05;101649.00;174772;28;875;-73
2022/08/12 01:36:02;;;;;;;6.75;3.70;;;;;;;18.04;65.02;101648.91;174664;28;1237;-72
2022/08/12 01:36:10;;;;;;;6.79;3.80;;;;;;;18.04;64.95;101651.53;174725;28;1214;-74
2022/08/12 01:36:20;;;;;;;5.85;3.80;;;;;;;18.04;64.84;101650.69;174765;28;1076;-73
2022/08/12 01:36:30;;;;;;;5.90;3.73;;;;;;;18.02;64.85;101645.50;174752;28;1226;-72
2022/08/12 01:36:49;;;;;;;5.07;3.72;;;;;;;18.04;65.19;101650.69;174789;28;1316;-73
2022/08/12 01:37:00;;;;;;;4.56;3.65;;;;;;;18.04;65.07;101653.31;174714;28;1218;-73
2022/08/12 01:37:09;;;;;;;5.35;3.67;;;;;;;18.04;64.99;101645.41;174645;28;1222;-71
2022/08/12 01:37:17;;;;;;;6.23;3.68;;;;;;;18.03;64.94;101649.81;174760;28;1084;-71
2022/08/12 01:37:26;;;;;;;6.36;3.71;;;;;;;18.03;64.81;101655.09;174734;28;1281;-71
2022/08/12 01:37:44;;;;;;;7.42;3.85;;;;;;;18.01;64.72;101655.22;174621;28;1211;-71
2022/08/12 01:38:07;;;;;;;6.85;3.79;;;;;;;18.01;64.59;101655.22;174632;28;1707;-72
2022/08/12 01:38:19;;;;;;;6.55;3.56;;;;;;;18.01;65.13;101651.72;174680;28;1217;-71
2022/08/12 01:38:31;;;;;;;6.84;3.45;;;;;;;18.01;65.08;101655.22;174750;28;1224;-71
2022/08/12 01:38:40;;;;;;;7.16;3.53;;;;;;;18.01;64.96;101647.31;174707;28;1220;-71
2022/08/12 01:38:48;;;;;;;8.47;3.67;;;;;;;18.01;65.14;101647.31;174761;28;898;-71